createdAt,value
2022-08-05T00:06:06.653Z,57.73
2022-08-05T00:16:17.870Z,57.83
2022-08-05T00:26:43.371Z,57.78
2022-08-05T00:37:11.755Z,57.82
2022-08-05T00:47:18.778Z,58.27
2022-08-05T00:57:23.157Z,58.72
2022-08-05T01:07:31.763Z,59.26
2022-08-05T01:17:43.932Z,59.46
2022-08-05T01:28:05.906Z,59.59
2022-08-05T01:38:24.742Z,59.84
2022-08-05T01:48:33.232Z,60.52
2022-08-05T01:58:40.905Z,60.72
2022-08-05T02:08:58.393Z,61.55
2022-08-05T02:19:07.088Z,60.87
2022-08-05T02:29:21.501Z,61.27
2022-08-05T02:39:34.558Z,61.67
2022-08-05T02:49:42.829Z,61.58
2022-08-05T02:59:50.619Z,62.77
2022-08-05T03:09:57.424Z,62.85
2022-08-05T03:20:00.592Z,62.90
2022-08-05T03:30:09.100Z,62.95
2022-08-05T03:40:13.375Z,62.35
2022-08-05T03:50:20.195Z,62.69
2022-08-05T04:00:26.704Z,62.27
2022-08-05T04:10:37.649Z,62.48
2022-08-05T04:20:41.523Z,62.28
2022-08-05T04:30:46.378Z,58.07
2022-08-05T04:40:51.153Z,57.27
2022-08-05T04:51:03.405Z,56.27
2022-08-05T05:01:14.196Z,55.47
2022-08-05T05:11:41.614Z,53.87
2022-08-05T05:21:57.389Z,52.82
2022-08-05T05:32:12.460Z,51.63
2022-08-05T05:42:18.934Z,50.63
2022-08-05T05:52:28.539Z,49.97
2022-08-05T06:02:37.748Z,47.58
2022-08-05T06:12:42.722Z,47.18
2022-08-05T06:22:45.905Z,44.01
2022-08-05T06:32:50.972Z,40.01
2022-08-05T06:42:55.419Z,38.41
2022-08-05T06:53:03.955Z,37.64
2022-08-05T07:03:32.413Z,36.28
2022-08-05T07:13:57.989Z,35.87
2022-08-05T07:24:02.775Z,35.05
2022-08-05T07:34:08.399Z,32.90
2022-08-05T07:44:14.115Z,31.57
2022-08-05T07:54:30.603Z,31.63
2022-08-05T08:04:37.980Z,29.63
2022-08-05T08:14:46.693Z,28.17
2022-08-05T08:24:51.740Z,29.01
2022-08-05T08:34:56.612Z,26.52
2022-08-05T08:45:22.265Z,25.01
2022-08-05T08:56:01.952Z,25.08
2022-08-05T09:06:08.575Z,24.30
2022-08-05T09:16:14.531Z,23.25
2022-08-05T09:26:21.111Z,22.85
2022-08-05T09:36:55.157Z,21.38
2022-08-05T09:47:12.827Z,22.73
2022-08-05T09:57:39.685Z,21.92
2022-08-05T10:08:10.873Z,21.57
2022-08-05T10:18:16.856Z,20.36
2022-08-05T10:28:29.083Z,19.31
2022-08-05T10:38:35.955Z,19.19
2022-08-05T10:48:57.356Z,18.88
2022-08-05T11:00:01.220Z,17.46
2022-08-05T11:09:45.434Z,17.78
2022-08-05T11:20:16.670Z,19.91
2022-08-05T11:30:16.665Z,17.45
2022-08-05T11:40:21.336Z,16.59
2022-08-05T11:50:25.883Z,17.61
2022-08-05T12:00:31.920Z,16.20
2022-08-05T12:10:38.561Z,17.25
2022-08-05T12:20:50.236Z,16.71
2022-08-05T12:30:53.388Z,16.39
2022-08-05T12:41:00.566Z,17.38
2022-08-05T12:52:11.074Z,16.56
2022-08-05T13:02:00.690Z,16.15
2022-08-05T13:12:07.478Z,17.09
2022-08-05T13:22:28.155Z,16.05
2022-08-05T13:32:36.292Z,17.46
2022-08-05T13:42:46.941Z,16.27
2022-08-05T13:52:54.725Z,17.13
2022-08-05T14:03:01.011Z,16.80
2022-08-05T14:13:05.798Z,16.09
2022-08-05T14:23:10.830Z,16.38
2022-08-05T14:33:23.154Z,16.72
2022-08-05T14:44:02.486Z,16.82
2022-08-05T14:54:26.230Z,18.20
2022-08-05T15:04:16.428Z,17.37
2022-08-05T15:14:33.183Z,17.64
2022-08-05T15:24:40.729Z,16.79
2022-08-05T15:34:43.909Z,17.37
2022-08-05T15:44:48.450Z,17.51
2022-08-05T15:54:53.065Z,18.30
2022-08-05T16:04:57.760Z,17.86
2022-08-05T16:15:02.196Z,18.02
2022-08-05T16:25:10.205Z,18.63
2022-08-05T16:35:13.649Z,19.18
2022-08-05T16:46:08.137Z,18.56
2022-08-05T16:55:47.163Z,19.73
2022-08-05T17:05:54.308Z,20.97
2022-08-05T17:16:26.776Z,21.34
2022-08-05T17:26:28.113Z,24.98
2022-08-05T17:36:32.750Z,28.15
2022-08-05T17:46:41.915Z,30.19
2022-08-05T17:56:45.597Z,32.87
2022-08-05T18:06:55.859Z,34.18
2022-08-05T18:17:05.831Z,35.93
2022-08-05T18:27:30.482Z,38.18
2022-08-05T18:37:40.313Z,39.13
2022-08-05T18:47:50.149Z,40.72
2022-08-05T18:58:03.004Z,41.80
2022-08-05T19:08:13.633Z,40.92
2022-08-05T19:18:21.900Z,41.37
2022-08-05T19:28:27.204Z,42.59
2022-08-05T19:38:30.630Z,45.02
2022-08-05T19:48:37.114Z,44.71
2022-08-05T19:58:54.019Z,45.41
2022-08-05T20:09:06.223Z,45.75
2022-08-05T20:19:17.351Z,45.81
2022-08-05T20:29:27.606Z,46.80
2022-08-05T20:39:35.556Z,47.61
2022-08-05T20:49:41.444Z,47.26
2022-08-05T21:00:10.596Z,48.00
2022-08-05T21:10:13.847Z,48.27
2022-08-05T21:20:33.045Z,48.70
2022-08-05T21:30:38.599Z,48.96
2022-08-05T21:40:45.167Z,49.13
2022-08-05T21:50:53.064Z,49.88
2022-08-05T22:00:57.814Z,50.57
2022-08-05T22:11:02.454Z,51.84
2022-08-05T22:21:18.983Z,51.25
2022-08-05T22:31:24.281Z,51.15
2022-08-05T22:42:09.344Z,50.89
2022-08-05T22:52:04.612Z,51.99
2022-08-05T23:02:11.658Z,52.92
2022-08-05T23:12:17.919Z,52.89
2022-08-05T23:22:27.112Z,53.96
2022-08-05T23:32:32.424Z,54.91
2022-08-05T23:42:41.694Z,54.63
2022-08-05T23:52:54.608Z,55.82
